Terminal Aerodrome Forecast
Issued by NWS

Current Version | Previous Version | Text Only | Print | Product List | Glossary Off
Versions: 1 2 3 4 5 6 7 8 9 10 11 12 13 14 15 16 17 18 19 20 21 22 23 24 25

000
FTUS41 KRLX 021723
TAFCKB
TAF
KCKB 021723Z 0218/0318 25004KT P6SM VCTS BKN045CB
     FM022100 26004KT P6SM SCT045
     FM030900 00000KT 5SM BR SCT045
     FM031600 VRB03KT P6SM VCTS BKN035CB=

USA.gov is the U.S. government's official web portal to all federal, state and local government web resources and services.